Airfield :
LOGIN :

Register | Disclaimer

   EN    FR    IT 

 










Legend :    VFR   Marginal VFR   IFR   Intensive IFR   Very Intensive IFR
Visi :
Ceiling :
>= 8 km
>= 3000ft
5 to 8 km
1000 to 3000 ft
1500m to 5 km
500 to 1000 ft
800 to 1500m
200 to 500 ft
< 800m
< 200 ft
Symbols :   Thunderstorms  Fog  Heavy snow  Heavy precipitations  Wind > 20 kt
SIGMETs :     Misc.  Thunderstorms  Icing  Turbulence  Mountain Waves  Volcanic Ashes







- Airport Elevation : 1411 ft
- IATA code : SZG


LOWS - Salzburg

CURRENT METAR :
  • 241250Z 32006KT 290V360 CAVOK 17/06 Q1020 NOSIG

EXPIRED METARs :
  • 241220Z 32007KT 270V350 CAVOK 17/04 Q1021 NOSIG
  • 241150Z 35005KT 310V030 CAVOK 16/05 Q1021 NOSIG
  • 241120Z 33005KT 290V020 CAVOK 16/04 Q1021 NOSIG
  • 241050Z 33004KT 280V010 CAVOK 15/05 Q1022 NOSIG
  • 241020Z 30005KT 270V340 CAVOK 15/05 Q1022 NOSIG
  • 240950Z VRB01KT CAVOK 14/03 Q1022 NOSIG

TAF TAF LOWS
Valid from the 24 at 12:00 until the 25 at 12:00 UTC


241115Z 2412/2512 34006KT CAVOK TX20/2415Z TN07/2512Z
BECMG 2417/2419 27007KT 9999 SCT040 BKN060
TEMPO 2420/2424 -RA
BECMG 2500/2502 -RA
TEMPO 2503/2506 30013KT RA SCT030 BKN050
TEMPO 2509/2512 32015G25KT NSW
No reported NOTAMs for that airfield.



MET'MAP, your aeronautical weather chart ! - Copyright ORBIFLY December 2007 - Disclaimer

ORBIFLY MET'MAP TEAM :

Programming & Development : Alexandra Zaïnal
Concept & Development : Baudouin d'Aumeries
Co-Development & Prog : Marc-Olivier Méhu
Technical & hardware support : Manuel Goepfert

Contact : metmap@orbifly.com




SOURCES & CREDITS :

   NOAA